sensor_id;sensor_type;location;lat;lon;timestamp;temperature;humidity
52621;DHT22;38515;53.160;6.990;2024-02-23T00:01:51;5.60;1.00
52621;DHT22;38515;53.160;6.990;2024-02-23T00:04:17;5.50;1.00
52621;DHT22;38515;53.160;6.990;2024-02-23T00:06:44;4.60;22.70
52621;DHT22;38515;53.160;6.990;2024-02-23T00:09:10;4.50;99.90
52621;DHT22;38515;53.160;6.990;2024-02-23T00:11:39;4.60;99.90
52621;DHT22;38515;53.160;6.990;2024-02-23T00:14:06;4.50;99.90
52621;DHT22;38515;53.160;6.990;2024-02-23T00:16:38;4.50;99.90
52621;DHT22;38515;53.160;6.990;2024-02-23T00:19:04;4.50;1.00
52621;DHT22;38515;53.160;6.990;2024-02-23T00:21:30;4.50;1.00
52621;DHT22;38515;53.160;6.990;2024-02-23T00:23:55;4.50;11.00
52621;DHT22;38515;53.160;6.990;2024-02-23T00:26:21;4.90;99.90
52621;DHT22;38515;53.160;6.990;2024-02-23T00:28:47;5.00;99.90
52621;DHT22;38515;53.160;6.990;2024-02-23T00:31:12;4.40;36.60
52621;DHT22;38515;53.160;6.990;2024-02-23T00:33:38;4.70;1.00
52621;DHT22;38515;53.160;6.990;2024-02-23T00:36:07;4.50;99.90
52621;DHT22;38515;53.160;6.990;2024-02-23T00:38:33;4.40;99.90
52621;DHT22;38515;53.160;6.990;2024-02-23T00:40:58;4.50;99.90
52621;DHT22;38515;53.160;6.990;2024-02-23T00:43:24;4.50;1.00
52621;DHT22;38515;53.160;6.990;2024-02-23T00:45:50;5.10;1.00
52621;DHT22;38515;53.160;6.990;2024-02-23T00:48:15;4.50;21.50
52621;DHT22;38515;53.160;6.990;2024-02-23T00:50:41;4.50;3.40
52621;DHT22;38515;53.160;6.990;2024-02-23T00:53:07;4.50;1.00
52621;DHT22;38515;53.160;6.990;2024-02-23T00:55:32;4.60;99.90
52621;DHT22;38515;53.160;6.990;2024-02-23T00:57:58;4.60;99.90
52621;DHT22;38515;53.160;6.990;2024-02-23T01:00:24;4.80;56.30
52621;DHT22;38515;53.160;6.990;2024-02-23T01:02:50;4.60;99.90
52621;DHT22;38515;53.160;6.990;2024-02-23T01:05:16;4.80;1.00
52621;DHT22;38515;53.160;6.990;2024-02-23T01:07:42;4.60;99.90
52621;DHT22;38515;53.160;6.990;2024-02-23T01:10:08;4.60;99.90
52621;DHT22;38515;53.160;6.990;2024-02-23T01:12:35;4.50;99.90
52621;DHT22;38515;53.160;6.990;2024-02-23T01:15:01;4.50;99.90
52621;DHT22;38515;53.160;6.990;2024-02-23T01:17:26;4.40;99.90
52621;DHT22;38515;53.160;6.990;2024-02-23T01:19:52;4.40;1.00
52621;DHT22;38515;53.160;6.990;2024-02-23T01:22:18;4.30;1.00
52621;DHT22;38515;53.160;6.990;2024-02-23T01:24:43;4.30;1.00
52621;DHT22;38515;53.160;6.990;2024-02-23T01:27:09;4.30;1.00
52621;DHT22;38515;53.160;6.990;2024-02-23T01:29:35;4.20;99.90
52621;DHT22;38515;53.160;6.990;2024-02-23T01:32:00;4.20;1.00
52621;DHT22;38515;53.160;6.990;2024-02-23T01:34:26;3.90;99.90
52621;DHT22;38515;53.160;6.990;2024-02-23T01:36:52;3.80;1.00
52621;DHT22;38515;53.160;6.990;2024-02-23T01:39:18;3.80;99.90
52621;DHT22;38515;53.160;6.990;2024-02-23T01:41:44;3.70;72.90
52621;DHT22;38515;53.160;6.990;2024-02-23T01:44:10;3.70;30.30
52621;DHT22;38515;53.160;6.990;2024-02-23T01:46:36;3.70;93.80
52621;DHT22;38515;53.160;6.990;2024-02-23T01:49:02;3.60;99.90
52621;DHT22;38515;53.160;6.990;2024-02-23T01:51:29;3.60;99.90
52621;DHT22;38515;53.160;6.990;2024-02-23T01:53:55;3.70;99.90
52621;DHT22;38515;53.160;6.990;2024-02-23T01:56:21;3.60;99.90
52621;DHT22;38515;53.160;6.990;2024-02-23T01:58:47;3.60;99.90
52621;DHT22;38515;53.160;6.990;2024-02-23T02:01:13;3.50;99.90
52621;DHT22;38515;53.160;6.990;2024-02-23T02:03:39;3.60;99.90
52621;DHT22;38515;53.160;6.990;2024-02-23T02:06:06;3.60;99.90
52621;DHT22;38515;53.160;6.990;2024-02-23T02:08:33;3.70;99.90
52621;DHT22;38515;53.160;6.990;2024-02-23T02:11:00;3.90;99.90
52621;DHT22;38515;53.160;6.990;2024-02-23T02:13:27;3.70;99.90
52621;DHT22;38515;53.160;6.990;2024-02-23T02:15:53;4.80;99.90
52621;DHT22;38515;53.160;6.990;2024-02-23T02:18:18;3.80;17.10
52621;DHT22;38515;53.160;6.990;2024-02-23T02:20:51;3.80;99.90
52621;DHT22;38515;53.160;6.990;2024-02-23T02:23:20;4.30;99.90
52621;DHT22;38515;53.160;6.990;2024-02-23T02:25:52;3.90;99.90
52621;DHT22;38515;53.160;6.990;2024-02-23T02:28:18;4.20;1.00
52621;DHT22;38515;53.160;6.990;2024-02-23T02:30:44;3.90;1.00
52621;DHT22;38515;53.160;6.990;2024-02-23T02:33:10;4.60;1.00
52621;DHT22;38515;53.160;6.990;2024-02-23T02:35:35;3.90;21.70
52621;DHT22;38515;53.160;6.990;2024-02-23T02:38:02;4.00;99.90
52621;DHT22;38515;53.160;6.990;2024-02-23T02:40:28;4.10;99.90
52621;DHT22;38515;53.160;6.990;2024-02-23T02:42:53;4.10;99.90
52621;DHT22;38515;53.160;6.990;2024-02-23T02:45:19;4.20;99.90
52621;DHT22;38515;53.160;6.990;2024-02-23T02:47:45;4.30;99.90
52621;DHT22;38515;53.160;6.990;2024-02-23T02:50:10;4.50;99.90
52621;DHT22;38515;53.160;6.990;2024-02-23T02:52:36;4.60;99.90
52621;DHT22;38515;53.160;6.990;2024-02-23T02:55:02;4.30;99.90
52621;DHT22;38515;53.160;6.990;2024-02-23T02:57:29;4.30;99.90
52621;DHT22;38515;53.160;6.990;2024-02-23T02:59:55;4.30;99.90
52621;DHT22;38515;53.160;6.990;2024-02-23T03:02:21;4.30;99.90
52621;DHT22;38515;53.160;6.990;2024-02-23T03:04:50;4.40;1.00
52621;DHT22;38515;53.160;6.990;2024-02-23T03:07:16;4.40;99.90
52621;DHT22;38515;53.160;6.990;2024-02-23T03:09:42;4.50;99.90
52621;DHT22;38515;53.160;6.990;2024-02-23T03:12:08;4.40;99.90
52621;DHT22;38515;53.160;6.990;2024-02-23T03:14:34;4.30;99.90
52621;DHT22;38515;53.160;6.990;2024-02-23T03:17:00;4.30;99.90
52621;DHT22;38515;53.160;6.990;2024-02-23T03:19:25;4.40;99.90
52621;DHT22;38515;53.160;6.990;2024-02-23T03:21:51;4.60;99.90
52621;DHT22;38515;53.160;6.990;2024-02-23T03:24:17;4.40;99.90
52621;DHT22;38515;53.160;6.990;2024-02-23T03:26:43;4.50;99.90
52621;DHT22;38515;53.160;6.990;2024-02-23T03:29:09;4.60;1.00
52621;DHT22;38515;53.160;6.990;2024-02-23T03:31:35;5.00;1.00
52621;DHT22;38515;53.160;6.990;2024-02-23T03:34:02;4.60;99.90
52621;DHT22;38515;53.160;6.990;2024-02-23T03:36:28;4.60;99.90
52621;DHT22;38515;53.160;6.990;2024-02-23T03:38:53;5.40;99.90
52621;DHT22;38515;53.160;6.990;2024-02-23T03:41:19;4.50;99.90
52621;DHT22;38515;53.160;6.990;2024-02-23T03:43:44;4.50;99.90
52621;DHT22;38515;53.160;6.990;2024-02-23T03:46:10;4.50;1.00
52621;DHT22;38515;53.160;6.990;2024-02-23T03:48:37;4.40;1.00
52621;DHT22;38515;53.160;6.990;2024-02-23T03:51:04;4.40;1.00
52621;DHT22;38515;53.160;6.990;2024-02-23T03:53:30;4.40;1.00
52621;DHT22;38515;53.160;6.990;2024-02-23T03:55:57;4.40;1.00
52621;DHT22;38515;53.160;6.990;2024-02-23T03:58:23;4.30;1.00
52621;DHT22;38515;53.160;6.990;2024-02-23T04:00:48;4.40;1.00
52621;DHT22;38515;53.160;6.990;2024-02-23T04:03:14;4.30;1.00
52621;DHT22;38515;53.160;6.990;2024-02-23T04:05:40;4.40;1.00
52621;DHT22;38515;53.160;6.990;2024-02-23T04:08:05;4.40;1.00
52621;DHT22;38515;53.160;6.990;2024-02-23T04:10:31;4.40;1.00
52621;DHT22;38515;53.160;6.990;2024-02-23T04:12:58;4.50;1.00
52621;DHT22;38515;53.160;6.990;2024-02-23T04:15:23;4.40;99.90
52621;DHT22;38515;53.160;6.990;2024-02-23T04:17:49;4.50;1.00
52621;DHT22;38515;53.160;6.990;2024-02-23T04:20:15;4.50;1.00
52621;DHT22;38515;53.160;6.990;2024-02-23T04:22:40;4.60;99.90
52621;DHT22;38515;53.160;6.990;2024-02-23T04:25:06;4.50;99.90
52621;DHT22;38515;53.160;6.990;2024-02-23T04:27:32;4.50;1.00
52621;DHT22;38515;53.160;6.990;2024-02-23T04:29:58;4.70;1.00
52621;DHT22;38515;53.160;6.990;2024-02-23T04:32:24;4.70;1.00
52621;DHT22;38515;53.160;6.990;2024-02-23T04:34:49;4.50;1.00
52621;DHT22;38515;53.160;6.990;2024-02-23T04:37:15;4.50;1.00
52621;DHT22;38515;53.160;6.990;2024-02-23T04:39:43;4.50;1.00
52621;DHT22;38515;53.160;6.990;2024-02-23T04:42:09;4.50;1.00
52621;DHT22;38515;53.160;6.990;2024-02-23T04:44:35;5.10;1.00
52621;DHT22;38515;53.160;6.990;2024-02-23T04:47:01;4.50;1.00
52621;DHT22;38515;53.160;6.990;2024-02-23T04:49:27;5.60;1.00
52621;DHT22;38515;53.160;6.990;2024-02-23T04:51:53;4.50;1.00
52621;DHT22;38515;53.160;6.990;2024-02-23T04:54:18;4.50;99.90
52621;DHT22;38515;53.160;6.990;2024-02-23T04:56:44;5.10;99.90
52621;DHT22;38515;53.160;6.990;2024-02-23T04:59:10;4.50;99.90
52621;DHT22;38515;53.160;6.990;2024-02-23T05:01:36;4.50;99.90
52621;DHT22;38515;53.160;6.990;2024-02-23T05:04:03;4.40;82.90
52621;DHT22;38515;53.160;6.990;2024-02-23T05:06:29;4.30;1.00
52621;DHT22;38515;53.160;6.990;2024-02-23T05:08:55;4.30;1.00
52621;DHT22;38515;53.160;6.990;2024-02-23T05:11:21;4.80;1.00
52621;DHT22;38515;53.160;6.990;2024-02-23T05:13:47;4.80;99.90
52621;DHT22;38515;53.160;6.990;2024-02-23T05:16:16;4.20;99.90
52621;DHT22;38515;53.160;6.990;2024-02-23T05:18:43;4.10;99.90
52621;DHT22;38515;53.160;6.990;2024-02-23T05:21:09;4.30;40.40
52621;DHT22;38515;53.160;6.990;2024-02-23T05:23:35;4.10;45.80
52621;DHT22;38515;53.160;6.990;2024-02-23T05:26:01;4.10;1.00
52621;DHT22;38515;53.160;6.990;2024-02-23T05:28:27;4.20;1.00
52621;DHT22;38515;53.160;6.990;2024-02-23T05:30:54;4.10;1.00
52621;DHT22;38515;53.160;6.990;2024-02-23T05:33:20;4.10;1.00
52621;DHT22;38515;53.160;6.990;2024-02-23T05:35:46;4.10;1.00
52621;DHT22;38515;53.160;6.990;2024-02-23T05:38:14;4.20;11.20
52621;DHT22;38515;53.160;6.990;2024-02-23T05:40:40;4.80;1.00
52621;DHT22;38515;53.160;6.990;2024-02-23T05:43:08;4.10;1.00
52621;DHT22;38515;53.160;6.990;2024-02-23T05:45:34;4.90;1.00
52621;DHT22;38515;53.160;6.990;2024-02-23T05:48:00;4.00;1.00
52621;DHT22;38515;53.160;6.990;2024-02-23T05:50:25;4.00;57.70
52621;DHT22;38515;53.160;6.990;2024-02-23T05:52:51;4.70;66.10
52621;DHT22;38515;53.160;6.990;2024-02-23T05:55:18;4.10;99.90
52621;DHT22;38515;53.160;6.990;2024-02-23T05:57:44;4.00;99.90
52621;DHT22;38515;53.160;6.990;2024-02-23T06:00:10;4.20;99.90
52621;DHT22;38515;53.160;6.990;2024-02-23T06:02:37;4.00;99.90
52621;DHT22;38515;53.160;6.990;2024-02-23T06:05:02;4.10;99.90
52621;DHT22;38515;53.160;6.990;2024-02-23T06:07:29;4.10;99.90
52621;DHT22;38515;53.160;6.990;2024-02-23T06:09:56;4.10;99.90
52621;DHT22;38515;53.160;6.990;2024-02-23T06:12:22;4.20;99.90
52621;DHT22;38515;53.160;6.990;2024-02-23T06:14:48;4.50;1.00
52621;DHT22;38515;53.160;6.990;2024-02-23T06:17:13;4.40;1.00
52621;DHT22;38515;53.160;6.990;2024-02-23T06:19:39;4.60;1.00
52621;DHT22;38515;53.160;6.990;2024-02-23T06:22:05;4.90;1.00
52621;DHT22;38515;53.160;6.990;2024-02-23T06:24:30;4.50;1.00
52621;DHT22;38515;53.160;6.990;2024-02-23T06:26:56;4.50;1.00
52621;DHT22;38515;53.160;6.990;2024-02-23T06:29:23;4.40;99.90
52621;DHT22;38515;53.160;6.990;2024-02-23T06:31:49;4.40;99.90
52621;DHT22;38515;53.160;6.990;2024-02-23T06:34:15;4.40;99.90
52621;DHT22;38515;53.160;6.990;2024-02-23T06:36:42;4.40;99.90
52621;DHT22;38515;53.160;6.990;2024-02-23T06:39:07;4.40;1.00
52621;DHT22;38515;53.160;6.990;2024-02-23T06:41:34;4.40;1.00
52621;DHT22;38515;53.160;6.990;2024-02-23T06:44:00;4.40;39.70
52621;DHT22;38515;53.160;6.990;2024-02-23T06:46:26;4.40;99.90
52621;DHT22;38515;53.160;6.990;2024-02-23T06:48:51;4.40;99.90
52621;DHT22;38515;53.160;6.990;2024-02-23T06:51:17;4.30;55.10
52621;DHT22;38515;53.160;6.990;2024-02-23T06:53:45;4.20;15.30
52621;DHT22;38515;53.160;6.990;2024-02-23T06:56:11;4.20;1.00
52621;DHT22;38515;53.160;6.990;2024-02-23T06:58:37;4.20;99.90
52621;DHT22;38515;53.160;6.990;2024-02-23T07:01:04;4.20;99.90
52621;DHT22;38515;53.160;6.990;2024-02-23T07:03:32;4.20;1.00
52621;DHT22;38515;53.160;6.990;2024-02-23T07:05:58;4.30;1.00
52621;DHT22;38515;53.160;6.990;2024-02-23T07:08:24;4.30;1.00
52621;DHT22;38515;53.160;6.990;2024-02-23T07:10:50;4.30;1.00
52621;DHT22;38515;53.160;6.990;2024-02-23T07:13:16;4.30;1.00
52621;DHT22;38515;53.160;6.990;2024-02-23T07:15:43;4.40;1.00
52621;DHT22;38515;53.160;6.990;2024-02-23T07:18:09;4.30;99.90
52621;DHT22;38515;53.160;6.990;2024-02-23T07:20:38;4.40;1.00
52621;DHT22;38515;53.160;6.990;2024-02-23T07:23:04;4.40;1.00
52621;DHT22;38515;53.160;6.990;2024-02-23T07:25:30;4.50;1.00
52621;DHT22;38515;53.160;6.990;2024-02-23T07:27:56;5.40;1.00
52621;DHT22;38515;53.160;6.990;2024-02-23T07:30:22;4.60;99.90
52621;DHT22;38515;53.160;6.990;2024-02-23T07:32:47;5.10;99.90
52621;DHT22;38515;53.160;6.990;2024-02-23T07:35:13;4.60;99.90
52621;DHT22;38515;53.160;6.990;2024-02-23T07:37:39;4.70;1.00
52621;DHT22;38515;53.160;6.990;2024-02-23T07:40:05;4.80;1.00
52621;DHT22;38515;53.160;6.990;2024-02-23T07:42:34;4.80;1.00
52621;DHT22;38515;53.160;6.990;2024-02-23T07:45:04;4.90;99.90
52621;DHT22;38515;53.160;6.990;2024-02-23T07:47:30;4.90;99.90
52621;DHT22;38515;53.160;6.990;2024-02-23T07:49:57;4.90;1.00
52621;DHT22;38515;53.160;6.990;2024-02-23T07:52:23;4.90;1.00
52621;DHT22;38515;53.160;6.990;2024-02-23T07:54:51;5.00;1.00
52621;DHT22;38515;53.160;6.990;2024-02-23T07:57:20;5.00;1.00
52621;DHT22;38515;53.160;6.990;2024-02-23T07:59:47;5.10;1.00
52621;DHT22;38515;53.160;6.990;2024-02-23T08:02:14;5.60;99.90
52621;DHT22;38515;53.160;6.990;2024-02-23T08:04:40;5.20;23.10
52621;DHT22;38515;53.160;6.990;2024-02-23T08:07:06;5.20;1.00
52621;DHT22;38515;53.160;6.990;2024-02-23T08:09:31;5.20;99.90
52621;DHT22;38515;53.160;6.990;2024-02-23T08:11:58;4.80;1.00
52621;DHT22;38515;53.160;6.990;2024-02-23T08:14:23;5.20;99.90
52621;DHT22;38515;53.160;6.990;2024-02-23T08:16:49;5.60;99.90
52621;DHT22;38515;53.160;6.990;2024-02-23T08:19:15;5.30;99.90
52621;DHT22;38515;53.160;6.990;2024-02-23T08:21:41;5.40;1.00
52621;DHT22;38515;53.160;6.990;2024-02-23T08:24:07;5.50;1.00
52621;DHT22;38515;53.160;6.990;2024-02-23T08:26:33;5.50;1.00
52621;DHT22;38515;53.160;6.990;2024-02-23T08:28:59;5.50;99.90
52621;DHT22;38515;53.160;6.990;2024-02-23T08:31:25;5.60;1.00
52621;DHT22;38515;53.160;6.990;2024-02-23T08:33:50;5.60;99.90
52621;DHT22;38515;53.160;6.990;2024-02-23T08:36:16;5.90;1.00
52621;DHT22;38515;53.160;6.990;2024-02-23T08:38:42;5.80;1.00
52621;DHT22;38515;53.160;6.990;2024-02-23T08:41:07;5.80;1.00
52621;DHT22;38515;53.160;6.990;2024-02-23T08:43:34;5.70;1.00
52621;DHT22;38515;53.160;6.990;2024-02-23T08:46:00;5.60;99.90
52621;DHT22;38515;53.160;6.990;2024-02-23T08:48:25;5.60;1.00
52621;DHT22;38515;53.160;6.990;2024-02-23T08:50:51;5.70;99.90
52621;DHT22;38515;53.160;6.990;2024-02-23T08:53:17;6.00;99.90
52621;DHT22;38515;53.160;6.990;2024-02-23T08:55:43;5.80;99.90
52621;DHT22;38515;53.160;6.990;2024-02-23T08:58:09;5.80;99.90
52621;DHT22;38515;53.160;6.990;2024-02-23T09:00:35;6.00;99.30
52621;DHT22;38515;53.160;6.990;2024-02-23T09:03:03;6.00;99.90
52621;DHT22;38515;53.160;6.990;2024-02-23T09:05:28;5.90;99.90
52621;DHT22;38515;53.160;6.990;2024-02-23T09:07:54;6.00;68.80
52621;DHT22;38515;53.160;6.990;2024-02-23T09:10:20;6.30;96.40
52621;DHT22;38515;53.160;6.990;2024-02-23T09:12:46;6.00;99.90
52621;DHT22;38515;53.160;6.990;2024-02-23T09:15:11;6.00;1.00
52621;DHT22;38515;53.160;6.990;2024-02-23T09:17:39;6.70;1.00
52621;DHT22;38515;53.160;6.990;2024-02-23T09:20:05;6.20;99.90
52621;DHT22;38515;53.160;6.990;2024-02-23T09:22:31;6.20;99.90
52621;DHT22;38515;53.160;6.990;2024-02-23T09:24:56;6.40;99.90
52621;DHT22;38515;53.160;6.990;2024-02-23T09:27:22;6.20;99.90
52621;DHT22;38515;53.160;6.990;2024-02-23T09:29:48;6.20;99.90
52621;DHT22;38515;53.160;6.990;2024-02-23T09:32:14;6.20;1.00
52621;DHT22;38515;53.160;6.990;2024-02-23T09:34:40;6.60;99.90
52621;DHT22;38515;53.160;6.990;2024-02-23T09:37:05;6.20;26.50
52621;DHT22;38515;53.160;6.990;2024-02-23T09:39:31;6.40;99.90
52621;DHT22;38515;53.160;6.990;2024-02-23T09:41:57;7.40;1.00
52621;DHT22;38515;53.160;6.990;2024-02-23T09:44:22;6.80;1.00
52621;DHT22;38515;53.160;6.990;2024-02-23T09:46:48;6.70;99.90
52621;DHT22;38515;53.160;6.990;2024-02-23T09:49:18;7.30;99.90
52621;DHT22;38515;53.160;6.990;2024-02-23T09:51:44;7.10;1.00
52621;DHT22;38515;53.160;6.990;2024-02-23T09:54:10;7.10;99.90
52621;DHT22;38515;53.160;6.990;2024-02-23T09:56:36;7.30;99.90
52621;DHT22;38515;53.160;6.990;2024-02-23T09:59:03;7.10;41.20
52621;DHT22;38515;53.160;6.990;2024-02-23T10:01:30;7.20;24.30
52621;DHT22;38515;53.160;6.990;2024-02-23T10:03:59;7.10;99.90
52621;DHT22;38515;53.160;6.990;2024-02-23T10:06:26;7.10;99.90
52621;DHT22;38515;53.160;6.990;2024-02-23T10:08:52;6.90;99.90
52621;DHT22;38515;53.160;6.990;2024-02-23T10:11:22;6.90;99.90
52621;DHT22;38515;53.160;6.990;2024-02-23T10:13:48;7.00;1.00
52621;DHT22;38515;53.160;6.990;2024-02-23T10:16:21;6.90;99.90
52621;DHT22;38515;53.160;6.990;2024-02-23T10:18:48;6.90;80.30
52621;DHT22;38515;53.160;6.990;2024-02-23T10:21:17;7.00;1.00
52621;DHT22;38515;53.160;6.990;2024-02-23T10:23:47;7.00;99.90
52621;DHT22;38515;53.160;6.990;2024-02-23T10:26:13;7.00;99.90
52621;DHT22;38515;53.160;6.990;2024-02-23T10:28:45;7.10;99.90
52621;DHT22;38515;53.160;6.990;2024-02-23T10:31:12;7.20;99.90
52621;DHT22;38515;53.160;6.990;2024-02-23T10:33:38;7.30;99.90
52621;DHT22;38515;53.160;6.990;2024-02-23T10:36:07;7.50;99.90
52621;DHT22;38515;53.160;6.990;2024-02-23T10:38:35;7.40;1.00
52621;DHT22;38515;53.160;6.990;2024-02-23T10:41:07;7.40;1.00
52621;DHT22;38515;53.160;6.990;2024-02-23T10:43:44;7.40;1.00
52621;DHT22;38515;53.160;6.990;2024-02-23T10:46:12;7.40;99.90
52621;DHT22;38515;53.160;6.990;2024-02-23T10:48:42;7.30;99.90
52621;DHT22;38515;53.160;6.990;2024-02-23T10:51:10;7.20;1.00
52621;DHT22;38515;53.160;6.990;2024-02-23T10:53:39;7.10;1.00
52621;DHT22;38515;53.160;6.990;2024-02-23T10:56:05;7.20;1.00
52621;DHT22;38515;53.160;6.990;2024-02-23T10:58:33;7.20;1.00
52621;DHT22;38515;53.160;6.990;2024-02-23T11:01:01;7.20;99.90
52621;DHT22;38515;53.160;6.990;2024-02-23T11:03:33;7.80;92.60
52621;DHT22;38515;53.160;6.990;2024-02-23T11:06:00;7.20;37.50
52621;DHT22;38515;53.160;6.990;2024-02-23T11:08:29;7.10;1.00
52621;DHT22;38515;53.160;6.990;2024-02-23T11:10:54;7.20;99.90
52621;DHT22;38515;53.160;6.990;2024-02-23T11:13:30;8.10;1.00
52621;DHT22;38515;53.160;6.990;2024-02-23T11:16:03;7.00;4.90
52621;DHT22;38515;53.160;6.990;2024-02-23T11:18:30;7.10;45.10
52621;DHT22;38515;53.160;6.990;2024-02-23T11:20:59;6.90;99.90
52621;DHT22;38515;53.160;6.990;2024-02-23T11:23:25;7.20;99.90
52621;DHT22;38515;53.160;6.990;2024-02-23T11:28:29;7.00;99.90
52621;DHT22;38515;53.160;6.990;2024-02-23T11:30:57;7.10;1.00
52621;DHT22;38515;53.160;6.990;2024-02-23T11:33:28;7.00;23.60
52621;DHT22;38515;53.160;6.990;2024-02-23T11:36:05;7.00;1.00
52621;DHT22;38515;53.160;6.990;2024-02-23T11:38:32;7.00;99.90
52621;DHT22;38515;53.160;6.990;2024-02-23T11:40:59;7.50;33.90
52621;DHT22;38515;53.160;6.990;2024-02-23T11:43:25;7.50;99.90
52621;DHT22;38515;53.160;6.990;2024-02-23T11:45:51;7.00;99.90
52621;DHT22;38515;53.160;6.990;2024-02-23T11:48:17;6.90;1.00
52621;DHT22;38515;53.160;6.990;2024-02-23T11:50:43;6.90;1.00
52621;DHT22;38515;53.160;6.990;2024-02-23T11:53:09;6.90;99.90
52621;DHT22;38515;53.160;6.990;2024-02-23T11:55:35;7.10;99.90
52621;DHT22;38515;53.160;6.990;2024-02-23T11:58:01;7.60;1.00
52621;DHT22;38515;53.160;6.990;2024-02-23T12:00:27;7.20;99.90
52621;DHT22;38515;53.160;6.990;2024-02-23T12:02:55;8.00;89.20
52621;DHT22;38515;53.160;6.990;2024-02-23T12:05:21;7.20;1.00
52621;DHT22;38515;53.160;6.990;2024-02-23T12:07:47;7.30;1.00
52621;DHT22;38515;53.160;6.990;2024-02-23T12:10:13;7.40;67.70
52621;DHT22;38515;53.160;6.990;2024-02-23T12:12:40;7.30;45.10
52621;DHT22;38515;53.160;6.990;2024-02-23T12:15:06;7.80;1.00
52621;DHT22;38515;53.160;6.990;2024-02-23T12:17:32;7.10;99.90
52621;DHT22;38515;53.160;6.990;2024-02-23T12:20:01;7.10;99.90
52621;DHT22;38515;53.160;6.990;2024-02-23T12:22:28;7.10;99.90
52621;DHT22;38515;53.160;6.990;2024-02-23T12:24:58;6.90;99.90
52621;DHT22;38515;53.160;6.990;2024-02-23T12:27:24;6.90;48.80
52621;DHT22;38515;53.160;6.990;2024-02-23T12:29:56;6.90;99.90
52621;DHT22;38515;53.160;6.990;2024-02-23T12:32:22;6.80;1.00
52621;DHT22;38515;53.160;6.990;2024-02-23T12:34:48;7.00;99.90
52621;DHT22;38515;53.160;6.990;2024-02-23T12:37:18;6.90;99.90
52621;DHT22;38515;53.160;6.990;2024-02-23T12:39:45;6.80;1.00
52621;DHT22;38515;53.160;6.990;2024-02-23T12:42:10;6.80;1.00
52621;DHT22;38515;53.160;6.990;2024-02-23T12:44:36;6.80;1.00
52621;DHT22;38515;53.160;6.990;2024-02-23T12:47:02;6.80;1.00
52621;DHT22;38515;53.160;6.990;2024-02-23T12:49:28;6.80;1.00
52621;DHT22;38515;53.160;6.990;2024-02-23T12:51:54;6.70;1.00
52621;DHT22;38515;53.160;6.990;2024-02-23T12:54:19;6.60;22.10
52621;DHT22;38515;53.160;6.990;2024-02-23T12:56:45;6.70;99.90
52621;DHT22;38515;53.160;6.990;2024-02-23T12:59:11;6.70;1.00
52621;DHT22;38515;53.160;6.990;2024-02-23T13:01:37;6.60;99.90
52621;DHT22;38515;53.160;6.990;2024-02-23T13:04:05;6.70;99.90
52621;DHT22;38515;53.160;6.990;2024-02-23T13:06:39;6.60;1.00
52621;DHT22;38515;53.160;6.990;2024-02-23T13:09:05;6.60;99.90
52621;DHT22;38515;53.160;6.990;2024-02-23T13:11:34;6.60;1.00
52621;DHT22;38515;53.160;6.990;2024-02-23T13:14:00;6.50;1.00
52621;DHT22;38515;53.160;6.990;2024-02-23T13:16:26;7.30;1.00
52621;DHT22;38515;53.160;6.990;2024-02-23T13:18:52;6.70;97.80
52621;DHT22;38515;53.160;6.990;2024-02-23T13:21:20;6.60;99.90
52621;DHT22;38515;53.160;6.990;2024-02-23T13:23:45;6.50;1.00
52621;DHT22;38515;53.160;6.990;2024-02-23T13:26:11;6.50;1.00
52621;DHT22;38515;53.160;6.990;2024-02-23T13:28:41;6.80;1.00
52621;DHT22;38515;53.160;6.990;2024-02-23T13:31:07;6.50;99.90
52621;DHT22;38515;53.160;6.990;2024-02-23T13:33:33;6.50;99.90
52621;DHT22;38515;53.160;6.990;2024-02-23T13:35:58;7.50;99.90
52621;DHT22;38515;53.160;6.990;2024-02-23T13:38:24;6.60;94.20
52621;DHT22;38515;53.160;6.990;2024-02-23T13:40:50;6.70;99.90
52621;DHT22;38515;53.160;6.990;2024-02-23T13:43:16;6.80;99.90
52621;DHT22;38515;53.160;6.990;2024-02-23T13:45:52;6.60;99.90
52621;DHT22;38515;53.160;6.990;2024-02-23T13:48:19;6.80;99.90
52621;DHT22;38515;53.160;6.990;2024-02-23T13:50:48;6.80;99.90
52621;DHT22;38515;53.160;6.990;2024-02-23T13:53:14;6.80;99.90
52621;DHT22;38515;53.160;6.990;2024-02-23T13:55:40;6.80;99.90
52621;DHT22;38515;53.160;6.990;2024-02-23T13:58:09;6.80;99.90
52621;DHT22;38515;53.160;6.990;2024-02-23T14:00:35;7.00;99.90
52621;DHT22;38515;53.160;6.990;2024-02-23T14:03:00;7.00;14.70
52621;DHT22;38515;53.160;6.990;2024-02-23T14:05:26;7.10;99.90
52621;DHT22;38515;53.160;6.990;2024-02-23T14:07:52;7.10;18.40
52621;DHT22;38515;53.160;6.990;2024-02-23T14:10:20;7.10;99.90
52621;DHT22;38515;53.160;6.990;2024-02-23T14:12:46;7.00;99.90
52621;DHT22;38515;53.160;6.990;2024-02-23T14:15:14;7.70;99.90
52621;DHT22;38515;53.160;6.990;2024-02-23T14:17:40;6.80;1.00
52621;DHT22;38515;53.160;6.990;2024-02-23T14:20:06;6.80;99.90
52621;DHT22;38515;53.160;6.990;2024-02-23T14:22:32;6.80;1.00
52621;DHT22;38515;53.160;6.990;2024-02-23T14:24:58;6.90;99.90
52621;DHT22;38515;53.160;6.990;2024-02-23T14:27:24;7.90;1.00
52621;DHT22;38515;53.160;6.990;2024-02-23T14:29:49;7.00;47.40
52621;DHT22;38515;53.160;6.990;2024-02-23T14:32:18;7.20;1.00
52621;DHT22;38515;53.160;6.990;2024-02-23T14:34:44;7.20;1.90
52621;DHT22;38515;53.160;6.990;2024-02-23T14:37:11;7.40;99.90
52621;DHT22;38515;53.160;6.990;2024-02-23T14:39:36;7.50;1.00
52621;DHT22;38515;53.160;6.990;2024-02-23T14:42:02;7.60;99.90
52621;DHT22;38515;53.160;6.990;2024-02-23T14:44:29;7.60;1.00
52621;DHT22;38515;53.160;6.990;2024-02-23T14:46:54;7.70;99.90
52621;DHT22;38515;53.160;6.990;2024-02-23T14:49:20;7.50;1.00
52621;DHT22;38515;53.160;6.990;2024-02-23T14:51:46;7.30;99.90
52621;DHT22;38515;53.160;6.990;2024-02-23T14:54:14;7.30;99.90
52621;DHT22;38515;53.160;6.990;2024-02-23T14:56:40;7.20;1.00
52621;DHT22;38515;53.160;6.990;2024-02-23T14:59:07;7.10;99.90
52621;DHT22;38515;53.160;6.990;2024-02-23T15:01:38;7.10;99.90
52621;DHT22;38515;53.160;6.990;2024-02-23T15:04:07;7.00;99.90
52621;DHT22;38515;53.160;6.990;2024-02-23T15:06:33;7.00;7.60
52621;DHT22;38515;53.160;6.990;2024-02-23T15:08:58;7.10;99.90
52621;DHT22;38515;53.160;6.990;2024-02-23T15:11:24;7.40;41.20
52621;DHT22;38515;53.160;6.990;2024-02-23T15:13:51;7.30;1.00
52621;DHT22;38515;53.160;6.990;2024-02-23T15:16:17;7.30;99.90
52621;DHT22;38515;53.160;6.990;2024-02-23T15:18:43;7.50;99.90
52621;DHT22;38515;53.160;6.990;2024-02-23T15:21:08;7.30;99.90
52621;DHT22;38515;53.160;6.990;2024-02-23T15:23:34;7.20;1.00
52621;DHT22;38515;53.160;6.990;2024-02-23T15:26:00;7.20;99.90
52621;DHT22;38515;53.160;6.990;2024-02-23T15:28:25;7.20;1.00
52621;DHT22;38515;53.160;6.990;2024-02-23T15:30:51;7.20;99.90
52621;DHT22;38515;53.160;6.990;2024-02-23T15:33:18;7.20;99.90
52621;DHT22;38515;53.160;6.990;2024-02-23T15:35:44;7.20;99.90
52621;DHT22;38515;53.160;6.990;2024-02-23T15:38:10;7.30;99.90
52621;DHT22;38515;53.160;6.990;2024-02-23T15:40:35;7.30;99.90
52621;DHT22;38515;53.160;6.990;2024-02-23T15:43:02;7.30;1.00
52621;DHT22;38515;53.160;6.990;2024-02-23T15:45:29;7.40;62.60
52621;DHT22;38515;53.160;6.990;2024-02-23T15:47:54;7.30;99.90
52621;DHT22;38515;53.160;6.990;2024-02-23T15:50:20;7.30;1.00